createdAt,value
2022-10-05T00:00:51.176Z,100.00
2022-10-05T00:03:25.301Z,100.00
2022-10-05T00:05:57.585Z,100.00
2022-10-05T00:08:33.937Z,100.00
2022-10-05T00:11:07.210Z,100.00
2022-10-05T00:13:42.536Z,100.00
2022-10-05T00:16:17.744Z,100.00
2022-10-05T00:18:51.381Z,100.00
2022-10-05T00:21:25.305Z,100.00
2022-10-05T00:23:57.931Z,100.00
2022-10-05T00:26:32.883Z,100.00
2022-10-05T00:29:26.998Z,100.00
2022-10-05T00:32:00.370Z,100.00
2022-10-05T00:34:33.839Z,100.00
2022-10-05T00:37:06.458Z,100.00
2022-10-05T00:39:39.284Z,100.00
2022-10-05T00:42:22.273Z,100.00
2022-10-05T00:44:58.188Z,100.00
2022-10-05T00:48:02.218Z,100.00
2022-10-05T00:50:49.872Z,100.00
2022-10-05T00:53:34.839Z,100.00
2022-10-05T00:56:25.718Z,100.00
2022-10-05T00:58:58.176Z,100.00
2022-10-05T01:01:50.801Z,100.00
2022-10-05T01:04:37.185Z,100.00
2022-10-05T01:07:32.380Z,100.00
2022-10-05T01:10:23.552Z,100.00
2022-10-05T01:13:08.978Z,100.00
2022-10-05T01:15:49.612Z,100.00
2022-10-05T01:18:38.648Z,100.00
2022-10-05T01:21:17.464Z,100.00
2022-10-05T01:24:07.156Z,100.00
2022-10-05T01:26:54.469Z,100.00
2022-10-05T01:29:36.036Z,100.00
2022-10-05T01:32:08.420Z,100.00
2022-10-05T01:34:49.859Z,100.00
2022-10-05T01:37:28.309Z,100.00
2022-10-05T01:40:18.890Z,100.00
2022-10-05T01:43:00.012Z,100.00
2022-10-05T01:45:37.150Z,100.00
2022-10-05T01:48:18.250Z,100.00
2022-10-05T01:51:17.448Z,100.00
2022-10-05T01:53:59.032Z,100.00
2022-10-05T01:56:31.504Z,100.00
2022-10-05T01:59:26.807Z,100.00
2022-10-05T02:02:01.782Z,100.00
2022-10-05T02:05:00.995Z,100.00
2022-10-05T02:07:32.586Z,100.00
2022-10-05T02:10:08.979Z,100.00
2022-10-05T02:12:42.827Z,100.00
2022-10-05T02:15:18.600Z,100.00
2022-10-05T02:17:54.615Z,100.00
2022-10-05T02:20:29.784Z,100.00
2022-10-05T02:23:04.854Z,100.00
2022-10-05T02:25:39.298Z,100.00
2022-10-05T02:28:18.257Z,100.00
2022-10-05T02:31:00.932Z,100.00
2022-10-05T02:33:33.792Z,100.00
2022-10-05T02:36:15.889Z,100.00
2022-10-05T02:39:14.674Z,100.00
2022-10-05T02:41:53.010Z,100.00
2022-10-05T02:44:44.229Z,100.00
2022-10-05T02:47:16.497Z,100.00
2022-10-05T02:49:53.998Z,100.00
2022-10-05T02:52:29.168Z,100.00
2022-10-05T02:55:01.475Z,100.00
2022-10-05T02:57:47.650Z,100.00
2022-10-05T03:00:21.297Z,100.00
2022-10-05T03:03:13.818Z,100.00
2022-10-05T03:06:00.517Z,100.00
2022-10-05T03:08:35.798Z,100.00
2022-10-05T03:11:14.947Z,100.00
2022-10-05T03:13:50.673Z,100.00
2022-10-05T03:16:26.127Z,100.00
2022-10-05T03:19:04.787Z,100.00
2022-10-05T03:21:43.233Z,100.00
2022-10-05T03:24:15.782Z,100.00
2022-10-05T03:27:03.414Z,100.00
2022-10-05T03:29:42.312Z,100.00
2022-10-05T03:32:33.500Z,100.00
2022-10-05T03:35:05.774Z,100.00
2022-10-05T03:37:49.682Z,100.00
2022-10-05T03:40:29.464Z,100.00
2022-10-05T03:43:24.830Z,100.00
2022-10-05T03:46:21.549Z,100.00
2022-10-05T03:49:03.406Z,100.00
2022-10-05T03:51:39.280Z,100.00
2022-10-05T03:54:23.694Z,100.00
2022-10-05T03:57:00.602Z,100.00
2022-10-05T03:59:37.839Z,100.00
2022-10-05T04:02:18.276Z,100.00
2022-10-05T04:04:53.422Z,100.00
2022-10-05T04:07:43.567Z,100.00
2022-10-05T04:10:29.564Z,100.00
2022-10-05T04:13:07.399Z,100.00
2022-10-05T04:16:14.536Z,100.00
2022-10-05T04:19:09.447Z,100.00
2022-10-05T04:21:51.597Z,100.00
2022-10-05T04:24:26.774Z,100.00
2022-10-05T04:27:01.393Z,100.00
2022-10-05T04:29:43.857Z,100.00
2022-10-05T04:32:16.154Z,100.00
2022-10-05T04:34:48.442Z,100.00
2022-10-05T04:37:31.010Z,100.00
2022-10-05T04:40:26.175Z,100.00
2022-10-05T04:43:07.248Z,100.00
2022-10-05T04:45:45.807Z,100.00
2022-10-05T04:48:30.625Z,100.00
2022-10-05T04:51:09.350Z,100.00
2022-10-05T04:54:00.273Z,100.00
2022-10-05T04:56:38.538Z,100.00
2022-10-05T04:59:17.500Z,100.00
2022-10-05T05:02:01.026Z,100.00
2022-10-05T05:04:42.134Z,100.00
2022-10-05T05:07:26.780Z,100.00
2022-10-05T05:10:12.514Z,100.00
2022-10-05T05:12:55.247Z,100.00
2022-10-05T05:15:40.406Z,100.00
2022-10-05T05:18:31.798Z,100.00
2022-10-05T05:21:31.178Z,100.00
2022-10-05T05:24:09.265Z,100.00
2022-10-05T05:27:07.836Z,100.00
2022-10-05T05:29:54.854Z,100.00
2022-10-05T05:32:27.123Z,100.00
2022-10-05T05:35:05.601Z,100.00
2022-10-05T05:37:56.456Z,100.00
2022-10-05T05:40:33.447Z,100.00
2022-10-05T05:43:24.190Z,100.00
2022-10-05T05:46:00.643Z,100.00
2022-10-05T05:48:38.103Z,100.00
2022-10-05T05:51:36.636Z,100.00
2022-10-05T05:54:15.285Z,100.00
2022-10-05T05:57:13.892Z,100.00
2022-10-05T06:00:08.087Z,100.00
2022-10-05T06:02:43.521Z,100.00
2022-10-05T06:05:24.339Z,100.00
2022-10-05T06:07:57.866Z,100.00
2022-10-05T06:10:41.983Z,100.00
2022-10-05T06:13:37.619Z,100.00
2022-10-05T06:16:12.936Z,100.00
2022-10-05T06:18:48.168Z,100.00
2022-10-05T06:21:32.299Z,100.00
2022-10-05T06:24:21.200Z,100.00
2022-10-05T06:27:05.330Z,100.00
2022-10-05T06:29:43.471Z,100.00
2022-10-05T06:32:38.498Z,100.00
2022-10-05T06:35:17.798Z,100.00
2022-10-05T06:37:51.260Z,100.00
2022-10-05T06:40:43.880Z,100.00
2022-10-05T06:43:23.268Z,100.00
2022-10-05T06:46:18.285Z,100.00
2022-10-05T06:48:51.026Z,100.00
2022-10-05T06:51:43.875Z,100.00
2022-10-05T06:54:37.382Z,100.00
2022-10-05T06:57:15.659Z,100.00
2022-10-05T07:00:01.952Z,100.00
2022-10-05T07:02:46.443Z,100.00
2022-10-05T07:05:34.013Z,100.00
2022-10-05T07:08:29.778Z,100.00
2022-10-05T07:11:29.458Z,100.00
2022-10-05T07:14:19.794Z,100.00
2022-10-05T07:17:03.055Z,100.00
2022-10-05T07:19:45.643Z,100.00
2022-10-05T07:22:17.916Z,100.00
2022-10-05T07:25:08.795Z,100.00
2022-10-05T07:27:51.772Z,100.00
2022-10-05T07:30:24.561Z,100.00
2022-10-05T07:33:02.350Z,100.00
2022-10-05T07:36:05.399Z,100.00
2022-10-05T07:38:37.705Z,100.00
2022-10-05T07:41:31.509Z,100.00
2022-10-05T07:44:13.067Z,100.00
2022-10-05T07:46:54.712Z,100.00
2022-10-05T07:49:41.532Z,100.00
2022-10-05T07:52:34.630Z,100.00
2022-10-05T07:55:17.929Z,100.00
2022-10-05T07:58:05.267Z,100.00
2022-10-05T08:00:57.115Z,100.00
2022-10-05T08:03:38.326Z,100.00
2022-10-05T08:06:14.017Z,100.00
2022-10-05T08:09:09.813Z,100.00
2022-10-05T08:11:51.459Z,100.00
2022-10-05T08:14:26.048Z,100.00
2022-10-05T08:17:00.244Z,100.00
2022-10-05T08:19:39.709Z,100.00
2022-10-05T08:22:24.830Z,100.00
2022-10-05T08:25:03.530Z,100.00
2022-10-05T08:27:41.156Z,100.00
2022-10-05T08:30:15.695Z,100.00
2022-10-05T08:32:53.886Z,100.00
2022-10-05T08:35:38.623Z,100.00
2022-10-05T08:38:16.678Z,100.00
2022-10-05T08:41:05.039Z,99.74
2022-10-05T08:43:49.651Z,99.82
2022-10-05T08:46:42.503Z,100.00
2022-10-05T08:49:49.505Z,99.28
2022-10-05T08:52:40.700Z,98.30
2022-10-05T08:55:34.634Z,97.66
2022-10-05T08:58:39.171Z,96.64
2022-10-05T09:01:22.869Z,97.38
2022-10-05T09:03:58.195Z,97.37
2022-10-05T09:06:53.456Z,96.47
2022-10-05T09:09:32.086Z,96.79
2022-10-05T09:12:14.944Z,95.55
2022-10-05T09:15:20.561Z,94.48
2022-10-05T09:18:02.911Z,95.57
2022-10-05T09:20:43.481Z,95.68
2022-10-05T09:23:36.018Z,94.70
2022-10-05T09:26:08.917Z,94.48
2022-10-05T09:28:47.390Z,94.52
2022-10-05T09:31:42.812Z,93.23
2022-10-05T09:34:33.342Z,95.39
2022-10-05T09:37:17.496Z,95.00
2022-10-05T09:40:02.437Z,93.54
2022-10-05T09:42:44.452Z,94.49
2022-10-05T09:45:36.252Z,95.44
2022-10-05T09:48:25.891Z,94.78
2022-10-05T09:51:01.213Z,92.45
2022-10-05T09:53:52.366Z,92.39
2022-10-05T09:59:10.953Z,89.80
2022-10-05T10:01:43.349Z,89.06
2022-10-05T10:04:25.073Z,91.30
2022-10-05T10:07:03.541Z,90.95
2022-10-05T10:09:51.142Z,91.37
2022-10-05T10:12:29.404Z,89.08
2022-10-05T10:15:20.202Z,88.86
2022-10-05T10:18:14.775Z,87.20
2022-10-05T10:20:47.567Z,86.22
2022-10-05T10:23:49.793Z,85.39
2022-10-05T10:26:26.018Z,81.85
2022-10-05T10:29:05.371Z,83.00
2022-10-05T10:31:56.578Z,84.40
2022-10-05T10:34:49.787Z,83.48
2022-10-05T10:38:05.618Z,81.94
2022-10-05T10:40:44.596Z,80.24
2022-10-05T10:43:17.281Z,80.79
2022-10-05T10:45:56.676Z,82.58
2022-10-05T10:48:29.843Z,80.56
2022-10-05T10:51:18.475Z,79.99
2022-10-05T10:53:53.965Z,80.76
2022-10-05T10:56:36.290Z,76.82
2022-10-05T10:59:35.288Z,80.30
2022-10-05T11:02:07.769Z,80.71
2022-10-05T11:04:58.516Z,79.15
2022-10-05T11:07:43.240Z,77.61
2022-10-05T11:10:34.928Z,76.44
2022-10-05T11:13:27.431Z,76.89
2022-10-05T11:19:02.826Z,79.75
2022-10-05T11:21:53.538Z,79.91
2022-10-05T11:24:26.034Z,79.76
2022-10-05T11:27:08.249Z,79.60
2022-10-05T11:29:55.268Z,79.16
2022-10-05T11:32:48.570Z,78.99
2022-10-05T11:35:34.187Z,79.21
2022-10-05T11:38:31.460Z,77.59
2022-10-05T11:41:17.530Z,78.68
2022-10-05T11:44:06.159Z,77.93
2022-10-05T11:46:42.040Z,78.19
2022-10-05T11:49:14.376Z,80.42
2022-10-05T11:51:50.062Z,80.75
2022-10-05T11:54:38.306Z,74.16
2022-10-05T11:57:24.427Z,70.37
2022-10-05T12:00:01.191Z,69.13
2022-10-05T12:02:53.183Z,70.12
2022-10-05T12:05:32.981Z,68.61
2022-10-05T12:08:23.875Z,67.12
2022-10-05T12:11:08.110Z,70.66
2022-10-05T12:13:46.062Z,72.73
2022-10-05T12:16:26.989Z,74.33
2022-10-05T12:19:19.604Z,70.09
2022-10-05T12:21:55.776Z,69.44
2022-10-05T12:24:38.992Z,71.93
2022-10-05T12:27:16.309Z,69.74
2022-10-05T12:30:07.538Z,66.98
2022-10-05T12:32:55.883Z,64.44
2022-10-05T12:35:49.956Z,63.20
2022-10-05T12:38:26.938Z,64.44
2022-10-05T12:41:00.249Z,66.12
2022-10-05T12:43:32.923Z,68.86
2022-10-05T12:46:08.374Z,73.82
2022-10-05T12:48:49.198Z,75.09
2022-10-05T12:51:30.699Z,74.79
2022-10-05T12:54:03.210Z,67.17
2022-10-05T12:56:52.637Z,65.70
2022-10-05T12:59:45.751Z,64.89
2022-10-05T13:02:18.249Z,62.41
2022-10-05T13:05:04.386Z,62.31
2022-10-05T13:08:00.798Z,62.23
2022-10-05T13:10:51.427Z,70.33
2022-10-05T13:13:39.460Z,72.91
2022-10-05T13:16:18.658Z,69.79
2022-10-05T13:18:58.912Z,68.38
2022-10-05T13:21:48.832Z,65.96
2022-10-05T13:24:47.566Z,65.85
2022-10-05T13:27:19.840Z,70.17
2022-10-05T13:30:02.127Z,73.35
2022-10-05T13:32:36.713Z,74.79
2022-10-05T13:35:30.434Z,75.10
2022-10-05T13:38:05.950Z,75.77
2022-10-05T13:40:58.556Z,77.30
2022-10-05T13:43:39.357Z,76.33
2022-10-05T13:46:21.400Z,77.33
2022-10-05T13:49:05.920Z,78.59
2022-10-05T13:51:41.457Z,79.28
2022-10-05T13:54:13.720Z,79.07
2022-10-05T13:56:51.447Z,79.53
2022-10-05T13:59:33.135Z,79.57
2022-10-05T14:02:08.673Z,80.00
2022-10-05T14:04:51.978Z,80.30
2022-10-05T14:07:30.341Z,80.36
2022-10-05T14:10:04.647Z,80.69
2022-10-05T14:12:40.062Z,79.08
2022-10-05T14:15:19.821Z,77.88
2022-10-05T14:17:52.675Z,79.45
2022-10-05T14:20:26.755Z,79.41
2022-10-05T14:23:05.343Z,79.10
2022-10-05T14:25:50.166Z,79.88
2022-10-05T14:28:29.409Z,78.99
2022-10-05T14:31:03.248Z,80.20
2022-10-05T14:33:35.534Z,80.28
2022-10-05T14:36:16.353Z,79.44
2022-10-05T14:39:00.678Z,79.82
2022-10-05T14:41:37.222Z,78.33
2022-10-05T14:44:09.551Z,79.64
2022-10-05T14:46:55.976Z,80.55
2022-10-05T14:49:30.014Z,80.66
2022-10-05T14:52:23.499Z,81.57
2022-10-05T14:55:00.252Z,82.34
2022-10-05T14:57:48.264Z,83.23
2022-10-05T15:00:20.723Z,84.80
2022-10-05T15:03:08.060Z,83.46
2022-10-05T15:05:52.262Z,83.96
2022-10-05T15:08:31.197Z,84.04
2022-10-05T15:11:06.356Z,82.50
2022-10-05T15:13:42.074Z,81.78
2022-10-05T15:16:26.230Z,82.30
2022-10-05T15:19:04.753Z,81.26
2022-10-05T15:21:42.300Z,80.45
2022-10-05T15:24:20.339Z,80.85
2022-10-05T15:26:54.412Z,80.79
2022-10-05T15:29:49.852Z,80.78
2022-10-05T15:32:47.944Z,81.94
2022-10-05T15:35:26.337Z,80.54
2022-10-05T15:38:12.407Z,81.49
2022-10-05T15:40:47.761Z,82.00
2022-10-05T15:43:22.397Z,81.82
2022-10-05T15:46:12.412Z,81.66
2022-10-05T15:48:52.285Z,81.72
2022-10-05T15:51:27.297Z,81.86
2022-10-05T15:54:25.001Z,82.03
2022-10-05T15:56:59.270Z,81.72
2022-10-05T15:59:37.490Z,82.41
2022-10-05T16:02:19.553Z,82.08
2022-10-05T16:04:51.884Z,82.26
2022-10-05T16:07:46.596Z,82.75
2022-10-05T16:10:23.378Z,82.69
2022-10-05T16:13:14.232Z,83.31
2022-10-05T16:15:55.168Z,83.69
2022-10-05T16:18:47.100Z,83.60
2022-10-05T16:21:19.448Z,83.97
2022-10-05T16:23:54.804Z,83.82
2022-10-05T16:26:38.488Z,83.94
2022-10-05T16:29:19.793Z,83.90
2022-10-05T16:32:10.925Z,84.68
2022-10-05T16:34:46.284Z,84.68
2022-10-05T16:37:28.115Z,85.08
2022-10-05T16:40:11.413Z,84.70
2022-10-05T16:42:50.008Z,85.12
2022-10-05T16:45:45.499Z,85.34
2022-10-05T16:48:29.552Z,85.39
2022-10-05T16:51:07.611Z,85.48
2022-10-05T16:53:39.863Z,85.38
2022-10-05T16:56:15.002Z,86.13
2022-10-05T16:58:53.811Z,86.57
2022-10-05T17:01:43.252Z,86.44
2022-10-05T17:04:24.765Z,86.60
2022-10-05T17:06:57.010Z,86.64
2022-10-05T17:09:42.776Z,86.44
2022-10-05T17:12:15.150Z,86.66
2022-10-05T17:15:24.393Z,87.21
2022-10-05T17:18:02.673Z,86.99
2022-10-05T17:20:45.331Z,87.54
2022-10-05T17:23:30.205Z,87.43
2022-10-05T17:26:29.137Z,87.99
2022-10-05T17:29:16.529Z,87.79
2022-10-05T17:32:02.428Z,88.02
2022-10-05T17:34:36.407Z,87.89
2022-10-05T17:37:16.164Z,88.21
2022-10-05T17:39:50.323Z,88.32
2022-10-05T17:42:25.629Z,88.31
2022-10-05T17:44:59.183Z,88.95
2022-10-05T17:47:50.471Z,88.71
2022-10-05T17:50:56.923Z,89.47
2022-10-05T17:53:55.396Z,89.75
2022-10-05T17:56:28.448Z,89.97
2022-10-05T17:59:03.083Z,90.25
2022-10-05T18:01:39.784Z,90.08
2022-10-05T18:04:12.053Z,90.34
2022-10-05T18:06:48.071Z,90.16
2022-10-05T18:09:23.450Z,90.00
2022-10-05T18:12:15.516Z,90.34
2022-10-05T18:14:50.856Z,90.22
2022-10-05T18:17:46.021Z,91.02
2022-10-05T18:20:27.027Z,91.17
2022-10-05T18:23:09.564Z,91.29
2022-10-05T18:26:01.385Z,91.33
2022-10-05T18:28:52.679Z,92.15
2022-10-05T18:31:35.940Z,91.78
2022-10-05T18:34:29.783Z,92.17
2022-10-05T18:37:21.479Z,92.43
2022-10-05T18:40:02.992Z,92.32
2022-10-05T18:42:41.358Z,92.57
2022-10-05T18:45:52.317Z,93.20
2022-10-05T18:48:31.056Z,93.47
2022-10-05T18:51:06.348Z,93.24
2022-10-05T18:53:41.628Z,93.94
2022-10-05T18:56:33.812Z,94.13
2022-10-05T18:59:09.255Z,94.20
2022-10-05T19:02:06.159Z,94.76
2022-10-05T19:04:54.594Z,94.89
2022-10-05T19:07:52.876Z,95.00
2022-10-05T19:10:40.015Z,95.24
2022-10-05T19:13:35.340Z,95.39
2022-10-05T19:16:13.748Z,95.88
2022-10-05T19:19:04.907Z,95.87
2022-10-05T19:21:58.782Z,96.18
2022-10-05T19:24:44.302Z,96.48
2022-10-05T19:27:27.395Z,96.10
2022-10-05T19:30:18.612Z,96.20
2022-10-05T19:33:00.181Z,96.08
2022-10-05T19:35:51.511Z,95.99
2022-10-05T19:38:34.037Z,96.83
2022-10-05T19:41:31.059Z,96.76
2022-10-05T19:44:26.755Z,96.85
2022-10-05T19:47:02.335Z,97.07
2022-10-05T19:49:36.482Z,97.40
2022-10-05T19:52:11.288Z,97.74
2022-10-05T19:55:01.707Z,98.04
2022-10-05T19:57:36.593Z,98.90
2022-10-05T20:00:36.858Z,100.00
2022-10-05T20:03:12.846Z,100.00
2022-10-05T20:06:09.576Z,100.00
2022-10-05T20:08:51.811Z,100.00
2022-10-05T20:11:27.630Z,100.00
2022-10-05T20:14:10.264Z,100.00
2022-10-05T20:19:55.992Z,100.00
2022-10-05T20:22:40.816Z,100.00
2022-10-05T20:25:18.921Z,100.00
2022-10-05T20:27:52.650Z,100.00
2022-10-05T20:30:28.885Z,100.00
2022-10-05T20:33:01.774Z,100.00
2022-10-05T20:35:34.047Z,100.00
2022-10-05T20:38:06.354Z,100.00
2022-10-05T20:40:39.899Z,100.00
2022-10-05T20:43:12.504Z,100.00
2022-10-05T20:45:44.994Z,100.00
2022-10-05T20:48:19.847Z,100.00
2022-10-05T20:50:52.100Z,100.00
2022-10-05T20:53:24.400Z,100.00
2022-10-05T20:55:59.723Z,100.00
2022-10-05T20:58:32.052Z,100.00
2022-10-05T21:01:23.173Z,100.00
2022-10-05T21:03:55.820Z,100.00
2022-10-05T21:06:28.616Z,100.00
2022-10-05T21:09:00.964Z,100.00
2022-10-05T21:11:33.258Z,100.00
2022-10-05T21:14:07.156Z,100.00
2022-10-05T21:16:41.123Z,100.00
2022-10-05T21:19:14.067Z,100.00
2022-10-05T21:21:47.661Z,100.00
2022-10-05T21:24:19.963Z,100.00
2022-10-05T21:26:55.429Z,100.00
2022-10-05T21:29:28.245Z,100.00
2022-10-05T21:32:00.586Z,100.00
2022-10-05T21:34:32.951Z,100.00
2022-10-05T21:37:05.271Z,100.00
2022-10-05T21:39:37.650Z,100.00
2022-10-05T21:42:09.924Z,100.00
2022-10-05T21:44:42.192Z,100.00
2022-10-05T21:47:14.462Z,100.00
2022-10-05T21:49:46.726Z,100.00
2022-10-05T21:52:19.380Z,100.00
2022-10-05T21:54:51.814Z,100.00
2022-10-05T21:57:26.678Z,100.00
2022-10-05T21:59:59.189Z,100.00
2022-10-05T22:02:37.408Z,100.00
2022-10-05T22:05:09.750Z,100.00
2022-10-05T22:07:42.036Z,100.00
2022-10-05T22:10:14.457Z,100.00
2022-10-05T22:12:49.231Z,100.00
2022-10-05T22:15:21.832Z,100.00
2022-10-05T22:17:54.237Z,100.00
2022-10-05T22:20:26.813Z,100.00
2022-10-05T22:22:59.037Z,100.00
2022-10-05T22:25:33.794Z,100.00
2022-10-05T22:28:09.021Z,100.00
2022-10-05T22:30:43.724Z,100.00
2022-10-05T22:33:16.217Z,100.00
2022-10-05T22:35:48.553Z,100.00
2022-10-05T22:38:20.911Z,100.00
2022-10-05T22:40:53.191Z,100.00
2022-10-05T22:43:28.895Z,100.00
2022-10-05T22:46:06.860Z,100.00
2022-10-05T22:48:39.418Z,100.00
2022-10-05T22:51:11.991Z,100.00
2022-10-05T22:53:44.499Z,100.00
2022-10-05T22:56:16.794Z,100.00
2022-10-05T22:58:50.949Z,100.00
2022-10-05T23:01:23.230Z,100.00
2022-10-05T23:03:57.129Z,100.00
2022-10-05T23:06:31.656Z,100.00
2022-10-05T23:09:04.035Z,100.00
2022-10-05T23:11:36.285Z,100.00
2022-10-05T23:14:08.568Z,100.00
2022-10-05T23:16:40.919Z,100.00
2022-10-05T23:19:13.645Z,100.00
2022-10-05T23:21:46.092Z,100.00
2022-10-05T23:24:18.396Z,100.00
2022-10-05T23:26:50.644Z,100.00
2022-10-05T23:29:23.302Z,100.00
2022-10-05T23:31:55.578Z,100.00
2022-10-05T23:34:29.298Z,100.00
2022-10-05T23:37:01.776Z,100.00
2022-10-05T23:39:34.053Z,100.00
2022-10-05T23:42:06.409Z,100.00
2022-10-05T23:44:38.730Z,100.00
2022-10-05T23:47:10.993Z,100.00
2022-10-05T23:49:46.271Z,100.00
2022-10-05T23:52:18.544Z,100.00
2022-10-05T23:54:50.825Z,100.00
2022-10-05T23:57:23.103Z,100.00
2022-10-05T23:59:56.331Z,100.00
